KRNO/RNO METAR and TAF weather

Enter ICAO airport designator
Station Type Date Time Source
KRNO METAR 2019/12/07 04:55 UTC NOAA

KRNO 070455Z 22007KT 7SM FEW010 FEW120 00/M02 A3004 RMK AO2 SLP179 T00001017


Station Type Date Time Source
KRNO Decoded METAR 2019/12/07 04:55 UTC NOAA

RENO/TAHOE INTERNATIONAL AIRPORT, NV, United States (KRNO) 39-29N 119-46W 1342M
Dec 06, 2019 - 11:55 PM EST / 2019.12.07 0455 UTC
Wind: from the SW (220 degrees) at 8 MPH (7 KT):0
Visibility: 7 mile(s):0
Sky conditions: mostly clear
Temperature: 32.0 F (0.0 C)
Windchill: 24 F (-4 C):1
Dew Point: 28.9 F (-1.7 C)
Relative Humidity: 88%
Pressure (altimeter): 30.04 in. Hg (1017 hPa)
ob: KRNO 070455Z 22007KT 7SM FEW010 FEW120 00/M02 A3004 RMK AO2 SLP179 T00001017
cycle: 5

Station Type Date Time Source
KRNO TAF 2019/12/06 18:22 UTC NOAA

TAF KRNO 061720Z 0618/0718 VRB03KT P6SM VCFG OVC010
FM061900 14007KT P6SM FEW030 BKN180
FM070000 18012G22KT P6SM SCT060 BKN100
FM070600 18010G18KT P6SM SCT060 BKN100 WS015/18050KT
FM071200 18018G28KT P6SM VCSH SCT050 BKN080

Example: see airport list